CheckWX is a tool to help pilots better visualize weather data.  It is not intended as a substitute for an official pre-flight weather briefing.

10:14:50 UTC

CYYU METAR
Kapuskasing Airport
Kapuskasing, Canada
Current

15 mins ago

CYYU 211000Z 21004KT 15SM OVC051 M01/M01 A2985 RMK SC8 SLP121
Observed
Mar-21 @ 10:00 UTC
Wind
  • 210° at 4 KTS
Visibility
15 SM
Flight Rules
VFR
Cloud Levels
  • Overcast at 5,100' AGL
Temperature
-1°C / 30°F
Dewpoint
-1°C / 30°F
Humidity
100%
Altimeter
29.85" Hg
Pressure
1012.1 hPa
Previous

1 hour ago

CYYU 210900Z 24004KT 15SM BKN056 M00/M00 A2987 RMK SC7 SLP128
Observed
Mar-21 @ 09:00 UTC
Wind
  • 240° at 4 KTS
Visibility
15 SM
Flight Rules
VFR
Cloud Levels
  • Broken at 5,600' AGL
Temperature
C / 32°F
Dewpoint
C / 32°F
Humidity
100%
Altimeter
29.87" Hg
Pressure
1012.8 hPa
Previous

2 hours ago

CYYU 210800Z 23002KT 15SM FEW043 OVC058 M00/M00 A2988 RMK SC1SC7 SLP133
Observed
Mar-21 @ 08:00 UTC
Wind
  • 230° at 2 KTS
Visibility
15 SM
Flight Rules
VFR
Cloud Levels
  • Few at 4,300' AGL
  • Overcast at 5,800' AGL
Temperature
C / 32°F
Dewpoint
C / 32°F
Humidity
100%
Altimeter
29.88" Hg
Pressure
1013.3 hPa